createdAt,value
2022-10-19T00:02:22.754Z,18.26
2022-10-19T00:04:49.387Z,18.27
2022-10-19T00:07:16.004Z,18.28
2022-10-19T00:09:45.472Z,18.26
2022-10-19T00:12:12.914Z,18.18
2022-10-19T00:14:39.502Z,18.14
2022-10-19T00:17:06.058Z,18.08
2022-10-19T00:19:32.650Z,17.95
2022-10-19T00:21:59.284Z,17.91
2022-10-19T00:24:25.906Z,17.93
2022-10-19T00:26:52.493Z,17.94
2022-10-19T00:29:19.267Z,17.97
2022-10-19T00:31:45.957Z,17.96
2022-10-19T00:34:12.600Z,17.96
2022-10-19T00:36:40.646Z,17.97
2022-10-19T00:39:11.334Z,17.94
2022-10-19T00:41:38.210Z,17.84
2022-10-19T00:44:30.148Z,17.67
2022-10-19T00:47:04.923Z,17.50
2022-10-19T00:49:35.841Z,17.46
2022-10-19T00:52:06.142Z,17.47
2022-10-19T00:54:34.166Z,17.50
2022-10-19T00:57:00.955Z,17.53
2022-10-19T00:59:31.638Z,17.58
2022-10-19T01:01:59.364Z,17.63
2022-10-19T01:04:27.064Z,17.65
2022-10-19T01:06:54.789Z,17.69
2022-10-19T01:09:21.394Z,17.67
2022-10-19T01:12:00.541Z,17.70
2022-10-19T01:14:39.120Z,17.69
2022-10-19T01:17:39.650Z,17.71
2022-10-19T01:20:24.636Z,17.59
2022-10-19T01:23:15.989Z,17.55
2022-10-19T01:26:10.279Z,17.52
2022-10-19T01:28:55.287Z,17.55
2022-10-19T01:31:31.895Z,17.47
2022-10-19T01:34:20.692Z,17.48
2022-10-19T01:37:01.271Z,17.48
2022-10-19T01:39:53.072Z,17.44
2022-10-19T01:42:37.489Z,17.40
2022-10-19T01:45:18.924Z,17.35
2022-10-19T01:47:53.138Z,17.33
2022-10-19T01:50:24.753Z,17.25
2022-10-19T01:52:53.999Z,17.21
2022-10-19T01:55:22.173Z,17.18
2022-10-19T01:57:59.370Z,17.20
2022-10-19T02:00:27.471Z,17.22
2022-10-19T02:02:55.410Z,17.18
2022-10-19T02:05:27.596Z,17.16
2022-10-19T02:08:02.467Z,17.19
2022-10-19T02:10:32.485Z,17.18
2022-10-19T02:13:00.731Z,17.20
2022-10-19T02:15:30.934Z,17.24
2022-10-19T02:18:01.428Z,17.24
2022-10-19T02:20:28.632Z,17.22
2022-10-19T02:22:55.482Z,17.28
2022-10-19T02:25:23.249Z,17.31
2022-10-19T02:27:52.302Z,17.31
2022-10-19T02:30:20.414Z,17.32
2022-10-19T02:32:47.490Z,17.28
2022-10-19T02:35:14.772Z,17.20
2022-10-19T02:37:41.932Z,17.13
2022-10-19T02:40:09.548Z,17.08
2022-10-19T02:42:41.939Z,17.06
2022-10-19T02:45:11.284Z,17.06
2022-10-19T02:47:44.936Z,17.04
2022-10-19T02:50:13.504Z,17.02
2022-10-19T02:52:40.892Z,17.04
2022-10-19T02:55:08.757Z,17.04
2022-10-19T02:57:36.041Z,17.03
2022-10-19T03:00:08.799Z,17.03
2022-10-19T03:02:35.684Z,17.04
2022-10-19T03:05:03.029Z,17.04
2022-10-19T03:07:29.748Z,17.06
2022-10-19T03:09:56.307Z,17.09
2022-10-19T03:12:23.173Z,17.15
2022-10-19T03:14:49.773Z,17.19
2022-10-19T03:17:16.319Z,17.18
2022-10-19T03:19:42.894Z,17.18
2022-10-19T03:22:09.442Z,17.13
2022-10-19T03:24:36.028Z,17.17
2022-10-19T03:27:02.641Z,17.18
2022-10-19T03:29:29.153Z,17.18
2022-10-19T03:31:55.764Z,17.08
2022-10-19T03:34:22.397Z,16.98
2022-10-19T03:36:48.944Z,16.90
2022-10-19T03:39:17.217Z,16.90
2022-10-19T03:41:43.991Z,16.89
2022-10-19T03:44:11.419Z,16.96
2022-10-19T03:46:38.931Z,16.97
2022-10-19T03:49:05.974Z,17.04
2022-10-19T03:51:33.573Z,17.07
2022-10-19T03:54:05.323Z,17.11
2022-10-19T03:56:33.401Z,17.15
2022-10-19T03:59:01.201Z,17.14
2022-10-19T04:01:40.257Z,17.14
2022-10-19T04:04:12.826Z,17.13
2022-10-19T04:06:41.703Z,17.14
2022-10-19T04:09:11.358Z,17.12
2022-10-19T04:11:37.825Z,17.06
2022-10-19T04:14:04.749Z,17.00
2022-10-19T04:16:32.699Z,17.01
2022-10-19T04:19:00.233Z,16.98
2022-10-19T04:21:28.209Z,16.96
2022-10-19T04:24:02.673Z,16.92
2022-10-19T04:26:29.826Z,16.89
2022-10-19T04:29:00.847Z,16.88
2022-10-19T04:31:28.493Z,16.87
2022-10-19T04:33:55.634Z,16.82
2022-10-19T04:36:23.640Z,16.81
2022-10-19T04:38:50.245Z,16.83
2022-10-19T04:41:19.195Z,16.81
2022-10-19T04:43:46.953Z,16.76
2022-10-19T04:46:20.526Z,16.73
2022-10-19T04:48:49.348Z,16.71
2022-10-19T04:51:17.055Z,16.72
2022-10-19T04:53:44.533Z,16.75
2022-10-19T04:56:17.237Z,16.79
2022-10-19T04:58:44.281Z,16.75
2022-10-19T05:01:17.030Z,16.76
2022-10-19T05:03:44.101Z,16.75
2022-10-19T05:06:12.253Z,16.81
2022-10-19T05:08:39.614Z,16.83
2022-10-19T05:11:09.857Z,16.82
2022-10-19T05:13:36.835Z,16.79
2022-10-19T05:16:05.722Z,16.73
2022-10-19T05:18:32.932Z,16.64
2022-10-19T05:21:11.578Z,16.64
2022-10-19T05:23:39.476Z,16.66
2022-10-19T05:26:15.429Z,16.68
2022-10-19T05:28:42.150Z,16.68
2022-10-19T05:31:11.683Z,16.69
2022-10-19T05:33:38.920Z,16.67
2022-10-19T05:36:16.353Z,16.68
2022-10-19T05:38:44.482Z,16.67
2022-10-19T05:41:11.374Z,16.57
2022-10-19T05:43:37.983Z,16.49
2022-10-19T05:46:13.152Z,16.37
2022-10-19T05:48:40.763Z,16.31
2022-10-19T05:51:10.140Z,16.29
2022-10-19T05:56:08.148Z,16.28
2022-10-19T05:58:36.075Z,16.31
2022-10-19T06:01:02.688Z,16.30
2022-10-19T06:03:29.750Z,16.33
2022-10-19T06:05:56.404Z,16.44
2022-10-19T06:08:24.278Z,16.55
2022-10-19T06:10:51.400Z,16.63
2022-10-19T06:13:19.812Z,16.67
2022-10-19T06:15:50.544Z,16.71
2022-10-19T06:18:17.072Z,16.77
2022-10-19T06:20:43.623Z,16.87
2022-10-19T06:23:10.169Z,16.92
2022-10-19T06:25:36.738Z,16.93
2022-10-19T06:28:04.038Z,16.96
2022-10-19T06:30:30.598Z,16.94
2022-10-19T06:32:58.775Z,16.91
2022-10-19T06:35:25.512Z,16.93
2022-10-19T06:37:52.055Z,17.01
2022-10-19T06:40:18.589Z,17.06
2022-10-19T06:42:45.304Z,17.07
2022-10-19T06:45:11.894Z,17.08
2022-10-19T06:47:38.712Z,17.11
2022-10-19T06:50:06.614Z,17.15
2022-10-19T06:52:34.628Z,17.13
2022-10-19T06:55:02.133Z,17.11
2022-10-19T06:57:28.757Z,17.18
2022-10-19T06:59:55.566Z,17.25
2022-10-19T07:02:22.164Z,17.29
2022-10-19T07:04:48.730Z,17.36
2022-10-19T07:07:15.396Z,17.51
2022-10-19T07:09:41.989Z,17.65
2022-10-19T07:12:10.837Z,17.75
2022-10-19T07:14:39.675Z,17.72
2022-10-19T07:17:07.557Z,17.73
2022-10-19T07:19:34.923Z,17.70
2022-10-19T07:22:01.923Z,17.79
2022-10-19T07:24:28.538Z,17.90
2022-10-19T07:26:55.842Z,17.97
2022-10-19T07:29:22.717Z,17.96
2022-10-19T07:31:49.310Z,17.91
2022-10-19T07:34:16.470Z,17.89
2022-10-19T07:36:46.101Z,17.84
2022-10-19T07:39:13.178Z,17.85
2022-10-19T07:41:39.893Z,17.77
2022-10-19T07:44:08.200Z,17.78
2022-10-19T07:46:39.355Z,17.75
2022-10-19T07:49:12.731Z,17.96
2022-10-19T07:51:40.058Z,18.19
2022-10-19T07:54:06.960Z,18.31
2022-10-19T07:56:36.512Z,18.34
2022-10-19T07:59:04.908Z,18.38
2022-10-19T08:01:34.136Z,18.60
2022-10-19T08:06:47.910Z,18.61
2022-10-19T08:09:33.503Z,18.79
2022-10-19T08:12:02.132Z,18.79
2022-10-19T08:14:28.760Z,18.57
2022-10-19T08:16:55.330Z,18.57
2022-10-19T08:19:22.923Z,18.50
2022-10-19T08:21:50.331Z,18.38
2022-10-19T08:24:19.384Z,18.36
2022-10-19T08:26:46.612Z,18.36
2022-10-19T08:29:15.711Z,18.38
2022-10-19T08:31:44.318Z,18.46
2022-10-19T08:34:11.958Z,18.51
2022-10-19T08:36:39.160Z,18.48
2022-10-19T08:39:07.684Z,18.50
2022-10-19T08:41:40.176Z,18.52
2022-10-19T08:44:22.179Z,18.56
2022-10-19T08:47:23.221Z,18.71
2022-10-19T08:49:50.560Z,18.92
2022-10-19T08:52:24.641Z,19.09
2022-10-19T08:54:53.696Z,19.13
2022-10-19T08:57:38.962Z,19.14
2022-10-19T09:00:21.146Z,19.25
2022-10-19T09:03:04.156Z,19.35
2022-10-19T09:05:54.953Z,19.26
2022-10-19T09:08:21.751Z,19.18
2022-10-19T09:10:51.745Z,19.09
2022-10-19T09:14:04.079Z,19.13
2022-10-19T09:16:31.709Z,19.12
2022-10-19T09:18:58.506Z,19.12
2022-10-19T09:21:45.944Z,19.19
2022-10-19T09:24:26.215Z,19.14
2022-10-19T09:26:56.228Z,18.88
2022-10-19T09:29:41.903Z,18.79
2022-10-19T09:32:18.216Z,18.61
2022-10-19T09:34:49.891Z,18.98
2022-10-19T09:37:23.476Z,19.51
2022-10-19T09:39:54.870Z,19.92
2022-10-19T09:42:33.099Z,20.01
2022-10-19T09:45:16.399Z,19.89
2022-10-19T09:47:47.800Z,19.76
2022-10-19T09:50:17.630Z,20.02
2022-10-19T09:52:46.776Z,20.12
2022-10-19T09:55:13.316Z,20.18
2022-10-19T09:57:51.004Z,20.22
2022-10-19T10:00:21.108Z,19.99
2022-10-19T10:02:53.095Z,20.03
2022-10-19T10:05:29.561Z,20.36
2022-10-19T10:07:56.294Z,20.95
2022-10-19T10:10:42.707Z,21.54
2022-10-19T10:13:17.923Z,21.30
2022-10-19T10:15:49.315Z,21.95
2022-10-19T10:18:19.014Z,22.74
2022-10-19T10:21:11.236Z,23.00
2022-10-19T10:23:38.247Z,23.10
2022-10-19T10:26:15.332Z,23.22
2022-10-19T10:28:50.634Z,23.25
2022-10-19T10:31:26.355Z,23.19
2022-10-19T10:34:10.829Z,22.70
2022-10-19T10:36:51.256Z,22.38
2022-10-19T10:39:18.137Z,22.15
2022-10-19T10:41:47.870Z,22.33
2022-10-19T10:44:20.332Z,22.65
2022-10-19T10:46:57.579Z,23.15
2022-10-19T10:49:26.565Z,23.32
2022-10-19T10:51:57.378Z,23.33
2022-10-19T10:54:31.305Z,23.77
2022-10-19T11:00:28.971Z,32.61
2022-10-19T11:03:02.049Z,35.00
2022-10-19T11:05:33.668Z,36.77
2022-10-19T11:08:12.925Z,38.30
2022-10-19T11:10:46.580Z,37.75
2022-10-19T11:13:16.859Z,37.66
2022-10-19T11:16:05.008Z,36.32
2022-10-19T11:18:37.812Z,36.56
2022-10-19T11:21:11.422Z,34.28
2022-10-19T11:23:41.034Z,31.47
2022-10-19T11:26:23.751Z,29.66
2022-10-19T11:28:56.446Z,29.05
2022-10-19T11:31:34.694Z,30.04
2022-10-19T11:34:04.119Z,28.57
2022-10-19T11:36:45.823Z,27.16
2022-10-19T11:39:39.873Z,27.14
2022-10-19T11:42:12.387Z,27.50
2022-10-19T11:44:57.373Z,26.79
2022-10-19T11:48:00.011Z,26.18
2022-10-19T11:51:04.172Z,25.56
2022-10-19T11:53:56.510Z,25.21
2022-10-19T11:56:44.715Z,24.79
2022-10-19T11:59:32.079Z,24.48
2022-10-19T12:02:18.663Z,24.38
2022-10-19T12:04:51.388Z,24.34
2022-10-19T12:07:43.102Z,24.29
2022-10-19T12:10:25.246Z,24.27
2022-10-19T12:13:04.688Z,24.32
2022-10-19T12:16:01.643Z,24.41
2022-10-19T12:18:40.498Z,24.29
2022-10-19T12:21:35.652Z,24.20
2022-10-19T12:24:06.659Z,24.04
2022-10-19T12:26:36.781Z,23.85
2022-10-19T12:29:10.275Z,23.76
2022-10-19T12:31:37.223Z,23.73
2022-10-19T12:34:22.892Z,23.85
2022-10-19T12:36:49.429Z,23.89
2022-10-19T12:39:26.481Z,23.90
2022-10-19T12:41:58.927Z,23.83
2022-10-19T12:44:57.776Z,23.80
2022-10-19T12:47:26.010Z,23.78
2022-10-19T12:49:55.077Z,23.93
2022-10-19T12:52:53.008Z,24.06
2022-10-19T12:55:27.634Z,24.08
2022-10-19T12:58:20.783Z,24.21
2022-10-19T13:01:03.603Z,24.05
2022-10-19T13:03:34.669Z,23.82
2022-10-19T13:06:09.105Z,23.57
2022-10-19T13:08:43.485Z,23.34
2022-10-19T13:11:15.327Z,23.14
2022-10-19T13:14:03.563Z,23.05
2022-10-19T13:16:30.168Z,22.90
2022-10-19T13:19:20.594Z,22.86
2022-10-19T13:21:51.742Z,22.89
2022-10-19T13:24:24.388Z,23.04
2022-10-19T13:27:03.179Z,23.43
2022-10-19T13:29:40.336Z,23.63
2022-10-19T13:32:44.796Z,23.66
2022-10-19T13:35:25.558Z,23.57
2022-10-19T13:38:16.921Z,23.43
2022-10-19T13:40:49.673Z,23.30
2022-10-19T13:43:22.956Z,23.21
2022-10-19T13:46:10.496Z,23.16
2022-10-19T13:48:59.047Z,23.03
2022-10-19T13:51:44.324Z,22.86
2022-10-19T13:54:35.837Z,22.81
2022-10-19T13:57:11.625Z,22.85
2022-10-19T13:59:56.846Z,22.87
2022-10-19T14:02:45.998Z,22.77
2022-10-19T14:05:25.785Z,22.70
2022-10-19T14:08:14.048Z,22.75
2022-10-19T14:11:00.089Z,22.84
2022-10-19T14:13:28.422Z,22.83
2022-10-19T14:15:57.263Z,22.71
2022-10-19T14:18:29.171Z,22.59
2022-10-19T14:21:02.049Z,22.53
2022-10-19T14:23:31.350Z,22.53
2022-10-19T14:26:12.144Z,22.56
2022-10-19T14:28:40.531Z,22.59
2022-10-19T14:31:09.939Z,22.63
2022-10-19T14:33:40.447Z,22.54
2022-10-19T14:36:14.167Z,22.38
2022-10-19T14:38:45.813Z,22.21
2022-10-19T14:41:36.994Z,21.93
2022-10-19T14:44:30.210Z,21.72
2022-10-19T14:46:56.906Z,21.41
2022-10-19T14:49:23.566Z,21.20
2022-10-19T14:52:01.748Z,20.98
2022-10-19T14:54:40.446Z,20.87
2022-10-19T14:57:11.841Z,20.75
2022-10-19T14:59:47.220Z,20.56
2022-10-19T15:02:27.967Z,20.52
2022-10-19T15:04:58.579Z,20.45
2022-10-19T15:07:29.645Z,20.42
2022-10-19T15:10:01.179Z,20.29
2022-10-19T15:12:46.574Z,20.15
2022-10-19T15:15:19.319Z,19.94
2022-10-19T15:17:56.706Z,19.72
2022-10-19T15:20:28.893Z,19.56
2022-10-19T15:22:57.781Z,19.43
2022-10-19T15:25:24.691Z,19.32
2022-10-19T15:27:53.578Z,19.26
2022-10-19T15:30:31.453Z,19.15
2022-10-19T15:33:13.364Z,19.01
2022-10-19T15:35:43.947Z,18.92
2022-10-19T15:38:14.536Z,18.86
2022-10-19T15:40:43.820Z,18.84
2022-10-19T15:43:35.274Z,18.81
2022-10-19T15:46:09.071Z,18.51
2022-10-19T15:48:41.667Z,18.35
2022-10-19T15:51:23.295Z,18.39
2022-10-19T15:53:58.363Z,18.42
2022-10-19T15:56:27.623Z,18.33
2022-10-19T15:58:59.249Z,18.20
2022-10-19T16:01:28.477Z,18.11
2022-10-19T16:03:58.519Z,18.02
2022-10-19T16:06:28.712Z,18.04
2022-10-19T16:08:55.894Z,18.04
2022-10-19T16:11:23.296Z,17.96
2022-10-19T16:13:50.197Z,17.83
2022-10-19T16:16:29.498Z,17.77
2022-10-19T16:18:56.704Z,17.59
2022-10-19T16:21:30.167Z,17.50
2022-10-19T16:23:57.107Z,17.49
2022-10-19T16:26:25.992Z,17.40
2022-10-19T16:28:54.187Z,17.39
2022-10-19T16:31:22.029Z,17.39
2022-10-19T16:33:48.675Z,17.40
2022-10-19T16:36:15.477Z,17.35
2022-10-19T16:38:42.167Z,17.33
2022-10-19T16:41:10.349Z,17.27
2022-10-19T16:43:37.459Z,17.16
2022-10-19T16:46:05.064Z,17.06
2022-10-19T16:48:32.436Z,16.99
2022-10-19T16:51:10.289Z,17.00
2022-10-19T16:53:38.399Z,16.96
2022-10-19T16:56:07.794Z,16.90
2022-10-19T16:58:34.927Z,16.81
2022-10-19T17:01:10.090Z,16.77
2022-10-19T17:03:36.940Z,16.77
2022-10-19T17:06:06.130Z,16.70
2022-10-19T17:08:37.074Z,16.69
2022-10-19T17:11:21.413Z,16.69
2022-10-19T17:13:50.601Z,16.64
2022-10-19T17:16:19.547Z,16.64
2022-10-19T17:18:47.177Z,16.64
2022-10-19T17:21:17.235Z,16.66
2022-10-19T17:23:44.654Z,16.60
2022-10-19T17:26:12.348Z,16.55
2022-10-19T17:28:40.224Z,16.57
2022-10-19T17:31:10.550Z,16.58
2022-10-19T17:33:39.010Z,16.47
2022-10-19T17:36:18.903Z,16.38
2022-10-19T17:38:47.595Z,16.37
2022-10-19T17:41:17.767Z,16.41
2022-10-19T17:43:47.014Z,16.36
2022-10-19T17:46:16.949Z,16.26
2022-10-19T17:48:45.162Z,16.22
2022-10-19T17:51:20.620Z,16.20
2022-10-19T17:53:48.744Z,16.15
2022-10-19T17:56:18.801Z,16.10
2022-10-19T17:58:46.153Z,16.06
2022-10-19T18:01:14.080Z,16.10
2022-10-19T18:03:41.548Z,16.12
2022-10-19T18:06:17.427Z,16.12
2022-10-19T18:08:47.139Z,16.09
2022-10-19T18:11:19.457Z,16.08
2022-10-19T18:13:46.870Z,16.02
2022-10-19T18:16:17.350Z,16.05
2022-10-19T18:18:48.484Z,16.04
2022-10-19T18:21:21.152Z,16.03
2022-10-19T18:23:48.324Z,16.01
2022-10-19T18:26:19.812Z,16.00
2022-10-19T18:28:46.683Z,15.96
2022-10-19T18:31:19.805Z,15.98
2022-10-19T18:33:47.548Z,15.96
2022-10-19T18:36:14.341Z,15.96
2022-10-19T18:38:42.078Z,15.90
2022-10-19T18:43:39.448Z,15.88
2022-10-19T18:46:07.258Z,15.90
2022-10-19T18:48:35.537Z,15.89
2022-10-19T18:51:07.191Z,15.88
2022-10-19T18:53:34.555Z,15.83
2022-10-19T18:56:04.058Z,15.82
2022-10-19T18:58:31.065Z,15.86
2022-10-19T19:01:09.864Z,15.91
2022-10-19T19:03:38.342Z,15.91
2022-10-19T19:06:07.910Z,15.94
2022-10-19T19:08:34.663Z,15.95
2022-10-19T19:11:21.423Z,15.96
2022-10-19T19:13:55.210Z,15.97
2022-10-19T19:16:23.150Z,15.95
2022-10-19T19:18:49.993Z,15.96
2022-10-19T19:21:22.366Z,15.98
2022-10-19T19:23:50.647Z,15.99
2022-10-19T19:26:18.061Z,16.05
2022-10-19T19:28:47.713Z,16.10
2022-10-19T19:31:18.123Z,16.13
2022-10-19T19:33:46.102Z,16.10
2022-10-19T19:36:14.605Z,16.07
2022-10-19T19:38:41.847Z,16.01
2022-10-19T19:41:10.936Z,16.00
2022-10-19T19:43:38.244Z,15.99
2022-10-19T19:46:09.474Z,15.97
2022-10-19T19:48:37.208Z,15.96
2022-10-19T19:51:04.572Z,15.91
2022-10-19T19:53:31.654Z,15.91
2022-10-19T19:55:58.264Z,15.93
2022-10-19T19:58:24.838Z,15.91
2022-10-19T20:00:51.380Z,15.81
2022-10-19T20:03:18.119Z,15.74
2022-10-19T20:05:44.794Z,15.72
2022-10-19T20:08:11.546Z,15.76
2022-10-19T20:10:42.464Z,15.81
2022-10-19T20:13:09.272Z,15.79
2022-10-19T20:15:39.470Z,15.77
2022-10-19T20:18:06.696Z,15.74
2022-10-19T20:20:33.421Z,15.70
2022-10-19T20:22:59.971Z,15.69
2022-10-19T20:25:26.765Z,15.70
2022-10-19T20:27:53.492Z,15.69
2022-10-19T20:30:20.747Z,15.68
2022-10-19T20:32:47.447Z,15.67
2022-10-19T20:35:14.118Z,15.63
2022-10-19T20:37:40.760Z,15.64
2022-10-19T20:40:08.897Z,15.63
2022-10-19T20:42:36.424Z,15.60
2022-10-19T20:45:03.897Z,15.56
2022-10-19T20:47:30.656Z,15.52
2022-10-19T20:49:57.426Z,15.52
2022-10-19T20:52:24.143Z,15.51
2022-10-19T20:54:50.733Z,15.48
2022-10-19T20:57:17.464Z,15.45
2022-10-19T20:59:45.676Z,15.45
2022-10-19T21:02:12.359Z,15.46
2022-10-19T21:04:39.028Z,15.46
2022-10-19T21:07:05.636Z,15.42
2022-10-19T21:09:32.423Z,15.42
2022-10-19T21:12:01.084Z,15.40
2022-10-19T21:14:29.833Z,15.38
2022-10-19T21:16:58.108Z,15.37
2022-10-19T21:19:29.007Z,15.37
2022-10-19T21:22:03.632Z,15.37
2022-10-19T21:24:33.496Z,15.33
2022-10-19T21:27:01.587Z,15.31
2022-10-19T21:29:28.414Z,15.31
2022-10-19T21:31:55.068Z,15.32
2022-10-19T21:34:24.191Z,15.33
2022-10-19T21:36:51.059Z,15.30
2022-10-19T21:39:18.236Z,15.27
2022-10-19T21:41:45.207Z,15.29
2022-10-19T21:44:12.458Z,15.29
2022-10-19T21:46:39.170Z,15.29
2022-10-19T21:49:05.920Z,15.29
2022-10-19T21:51:46.617Z,15.28
2022-10-19T21:54:16.052Z,15.26
2022-10-19T21:56:43.971Z,15.26
2022-10-19T21:59:12.119Z,15.23
2022-10-19T22:01:41.272Z,15.20
2022-10-19T22:04:17.081Z,15.20
2022-10-19T22:06:43.782Z,15.17
2022-10-19T22:09:18.317Z,15.16
2022-10-19T22:11:46.036Z,15.13
2022-10-19T22:14:15.525Z,15.11
2022-10-19T22:16:42.636Z,15.08
2022-10-19T22:19:10.010Z,15.06
2022-10-19T22:24:12.474Z,15.01
2022-10-19T22:26:42.871Z,15.01
2022-10-19T22:29:09.581Z,15.01
2022-10-19T22:31:37.339Z,15.04
2022-10-19T22:34:06.629Z,15.03
2022-10-19T22:36:33.295Z,15.02
2022-10-19T22:38:59.933Z,15.00
2022-10-19T22:41:26.527Z,14.98
2022-10-19T22:43:53.147Z,14.97
2022-10-19T22:46:19.777Z,14.95
2022-10-19T22:48:46.441Z,14.93
2022-10-19T22:51:13.098Z,14.93
2022-10-19T22:53:39.737Z,14.91
2022-10-19T22:56:06.809Z,14.91
2022-10-19T22:58:33.428Z,14.91
2022-10-19T23:01:01.892Z,14.91
2022-10-19T23:03:28.574Z,14.90
2022-10-19T23:05:55.198Z,14.87
2022-10-19T23:08:21.794Z,14.86
2022-10-19T23:10:48.471Z,14.84
2022-10-19T23:13:15.193Z,14.80
2022-10-19T23:15:43.933Z,14.80
2022-10-19T23:18:11.167Z,14.78
2022-10-19T23:20:37.722Z,14.73
2022-10-19T23:23:05.407Z,14.70
2022-10-19T23:28:03.565Z,14.69
2022-10-19T23:30:30.180Z,14.64
2022-10-19T23:32:56.712Z,14.57
2022-10-19T23:35:23.330Z,14.52
2022-10-19T23:37:49.879Z,14.49
2022-10-19T23:40:16.465Z,14.47
2022-10-19T23:42:43.042Z,14.53
2022-10-19T23:45:10.104Z,14.57
2022-10-19T23:47:37.028Z,14.53
2022-10-19T23:50:03.919Z,14.51
2022-10-19T23:52:30.512Z,14.51
2022-10-19T23:54:57.171Z,14.49
2022-10-19T23:57:23.687Z,14.44
2022-10-19T23:59:50.310Z,14.44
